createdAt,value
2019-06-01T00:04:52.608Z,98453.52
2019-06-01T00:10:14.282Z,98445.64
2019-06-01T00:15:36.582Z,98439.78
2019-06-01T00:20:58.191Z,98443.98
2019-06-01T00:26:20.139Z,98438.40
2019-06-01T00:31:42.962Z,98433.77
2019-06-01T00:37:04.836Z,98423.77
2019-06-01T00:42:26.301Z,98439.19
2019-06-01T00:47:48.910Z,98422.30
2019-06-01T00:53:10.794Z,98423.13
2019-06-01T00:58:32.338Z,98411.67
2019-06-01T01:03:54.442Z,98409.40
2019-06-01T01:09:16.123Z,98395.13
2019-06-01T01:14:38.084Z,98397.23
2019-06-01T01:19:59.616Z,98388.50
2019-06-01T01:25:21.114Z,98390.89
2019-06-01T01:30:59.977Z,98379.58
2019-06-01T01:36:06.608Z,98370.20
2019-06-01T01:41:28.618Z,98373.55
2019-06-01T01:46:50.707Z,98368.34
2019-06-01T01:52:12.614Z,98337.48
2019-06-01T01:57:34.812Z,98342.31
2019-06-01T02:02:56.358Z,98352.45
2019-06-01T02:08:18.419Z,98346.75
2019-06-01T02:13:40.180Z,98359.45
2019-06-01T02:19:02.447Z,98360.16
2019-06-01T02:24:24.052Z,98359.83
2019-06-01T02:29:45.884Z,98379.92
2019-06-01T02:35:08.043Z,98378.06
2019-06-01T02:40:30.197Z,98399.61
2019-06-01T02:45:52.248Z,98382.27
2019-06-01T02:51:13.881Z,98405.44
2019-06-01T02:56:35.668Z,98391.77
2019-06-01T03:02:04.443Z,98394.62
2019-06-01T03:07:22.696Z,98400.41
2019-06-01T03:12:45.452Z,98396.59
2019-06-01T03:18:09.390Z,98397.66
2019-06-01T03:23:32.886Z,98392.72
2019-06-01T03:28:56.691Z,98409.06
2019-06-01T03:34:18.816Z,98394.89
2019-06-01T03:39:40.856Z,98399.44
2019-06-01T03:45:03.486Z,98414.13
2019-06-01T03:50:25.524Z,98430.20
2019-06-01T03:55:47.253Z,98415.55
2019-06-01T04:01:09.167Z,98414.88
2019-06-01T04:06:30.977Z,98429.58
2019-06-01T04:11:52.311Z,98424.95
2019-06-01T04:17:14.840Z,98428.62
2019-06-01T04:22:36.776Z,98435.47
2019-06-01T04:27:58.096Z,98450.02
2019-06-01T04:33:19.636Z,98444.22
2019-06-01T04:38:41.559Z,98443.27
2019-06-01T04:44:03.814Z,98451.11
2019-06-01T04:49:25.689Z,98448.47
2019-06-01T04:54:47.219Z,98435.45
2019-06-01T05:00:21.121Z,98469.37
2019-06-01T05:05:32.273Z,98446.66
2019-06-01T05:10:53.909Z,98450.99
2019-06-01T05:16:16.600Z,98451.83
2019-06-01T05:21:38.324Z,98452.13
2019-06-01T05:26:59.491Z,98476.39
2019-06-01T05:32:21.483Z,98476.91
2019-06-01T05:37:43.103Z,98487.09
2019-06-01T05:43:04.883Z,98478.15
2019-06-01T05:48:30.389Z,98488.75
2019-06-01T05:53:50.524Z,98506.05
2019-06-01T05:59:12.061Z,98513.72
2019-06-01T06:04:33.708Z,98511.16
2019-06-01T06:09:55.615Z,98513.84
2019-06-01T06:15:17.580Z,98526.42
2019-06-01T06:20:39.200Z,98526.13
2019-06-01T06:26:00.843Z,98536.86
2019-06-01T06:31:23.188Z,98528.66
2019-06-01T06:36:44.983Z,98521.02
2019-06-01T06:42:06.826Z,98514.41
2019-06-01T06:47:28.274Z,98517.18
2019-06-01T06:52:50.051Z,98509.87
2019-06-01T06:58:11.550Z,98513.16
2019-06-01T07:03:33.356Z,98518.52
2019-06-01T07:08:55.111Z,98526.64
2019-06-01T07:14:16.914Z,98521.53
2019-06-01T07:19:38.855Z,98520.73
2019-06-01T07:25:01.604Z,98529.14
2019-06-01T07:30:24.176Z,98517.08
2019-06-01T07:35:46.177Z,98528.81
2019-06-01T07:41:08.057Z,98525.64
2019-06-01T07:46:29.643Z,98529.41
2019-06-01T07:51:51.581Z,98526.09
2019-06-01T07:57:13.484Z,98529.44
2019-06-01T08:02:35.306Z,98527.95
2019-06-01T08:07:57.422Z,98528.50
2019-06-01T08:13:19.367Z,98525.42
2019-06-01T08:18:41.765Z,98525.48
2019-06-01T08:24:03.576Z,98528.52
2019-06-01T08:29:26.635Z,98527.94
2019-06-01T08:34:48.754Z,98523.44
2019-06-01T08:40:10.383Z,98520.59
2019-06-01T08:45:36.612Z,98517.68
2019-06-01T08:50:55.536Z,98517.11
2019-06-01T08:56:21.591Z,98515.31
2019-06-01T09:01:41.329Z,98519.23
2019-06-01T09:07:03.042Z,98520.23
2019-06-01T09:12:25.130Z,98520.72
2019-06-01T09:17:47.158Z,98516.95
2019-06-01T09:23:08.602Z,98520.58
2019-06-01T09:28:30.213Z,98514.27
2019-06-01T09:33:51.880Z,98514.81
2019-06-01T09:39:13.726Z,98515.84
2019-06-01T09:44:35.539Z,98522.66
2019-06-01T09:49:57.731Z,98506.85
2019-06-01T09:55:19.473Z,98501.48
2019-06-01T10:00:43.596Z,98494.36
2019-06-01T10:06:04.763Z,98488.44
2019-06-01T10:11:26.464Z,98488.11
2019-06-01T10:16:48.218Z,98483.19
2019-06-01T10:22:10.104Z,98476.87
2019-06-01T10:27:32.455Z,98481.91
2019-06-01T10:32:54.202Z,98472.88
2019-06-01T10:38:15.985Z,98472.82
2019-06-01T10:43:37.815Z,98467.70
2019-06-01T10:48:59.805Z,98473.91
2019-06-01T10:54:21.850Z,98465.38
2019-06-01T10:59:43.586Z,98460.00
2019-06-01T11:05:05.923Z,98460.55
2019-06-01T11:10:27.479Z,98452.04
2019-06-01T11:15:49.221Z,98453.26
2019-06-01T11:21:10.872Z,98448.02
2019-06-01T11:26:33.333Z,98450.05
2019-06-01T11:31:55.236Z,98442.44
2019-06-01T11:37:16.825Z,98439.36
2019-06-01T11:42:39.095Z,98435.23
2019-06-01T11:48:01.125Z,98434.02
2019-06-01T11:53:22.793Z,98423.37
2019-06-01T11:58:45.496Z,98430.39
2019-06-01T12:04:07.701Z,98427.61
2019-06-01T12:09:29.671Z,98420.86
2019-06-01T12:14:51.641Z,98423.13
2019-06-01T12:20:13.466Z,98422.66
2019-06-01T12:25:34.863Z,98408.64
2019-06-01T12:30:59.072Z,98409.70
2019-06-01T12:36:21.463Z,98405.84
2019-06-01T12:41:43.544Z,98403.69
2019-06-01T12:47:05.549Z,98412.31
2019-06-01T12:52:27.085Z,98410.19
2019-06-01T12:57:49.365Z,98406.70
2019-06-01T13:03:11.383Z,98394.97
2019-06-01T13:08:32.933Z,98387.52
2019-06-01T13:13:54.566Z,98395.22
2019-06-01T13:19:17.521Z,98379.39
2019-06-01T13:24:39.557Z,98385.44
2019-06-01T13:30:01.149Z,98376.69
2019-06-01T13:35:22.948Z,98373.53
2019-06-01T13:40:44.829Z,98387.69
2019-06-01T13:46:06.869Z,98377.81
2019-06-01T13:51:28.785Z,98373.62
2019-06-01T13:56:50.968Z,98375.20
2019-06-01T14:02:12.573Z,98369.70
2019-06-01T14:07:34.114Z,98370.65
2019-06-01T14:12:55.606Z,98364.16
2019-06-01T14:18:17.301Z,98358.58
2019-06-01T14:23:38.860Z,98360.16
2019-06-01T14:29:00.883Z,98353.46
2019-06-01T14:34:22.275Z,98340.23
2019-06-01T14:39:44.222Z,98336.78
2019-06-01T14:45:07.583Z,98327.21
2019-06-01T14:50:29.481Z,98322.87
2019-06-01T14:55:51.734Z,98292.77
2019-06-01T15:01:28.921Z,98317.55
2019-06-01T15:06:37.252Z,98325.38
2019-06-01T15:11:59.010Z,98305.27
2019-06-01T15:17:20.870Z,98308.37
2019-06-01T15:22:42.462Z,98298.58
2019-06-01T15:28:04.356Z,98291.30
2019-06-01T15:33:26.092Z,98296.41
2019-06-01T15:38:48.026Z,98290.23
2019-06-01T15:44:09.473Z,98289.39
2019-06-01T15:49:31.359Z,98285.33
2019-06-01T15:54:54.256Z,98284.52
2019-06-01T16:00:16.614Z,98292.30
2019-06-01T16:05:38.464Z,98304.16
2019-06-01T16:11:04.568Z,98316.79
2019-06-01T16:16:24.062Z,98313.16
2019-06-01T16:21:45.898Z,98308.86
2019-06-01T16:27:07.597Z,98318.69
2019-06-01T16:32:29.089Z,98327.13
2019-06-01T16:37:51.087Z,98338.69
2019-06-01T16:43:12.770Z,98343.80
2019-06-01T16:48:34.158Z,98360.19
2019-06-01T16:53:56.393Z,98346.08
2019-06-01T16:59:18.384Z,98361.78
2019-06-01T17:04:40.024Z,98364.05
2019-06-01T17:10:19.284Z,98358.89
2019-06-01T17:15:25.444Z,98356.58
2019-06-01T17:20:48.884Z,98355.98
2019-06-01T17:26:10.923Z,98361.57
2019-06-01T17:31:32.707Z,98356.65
2019-06-01T17:36:54.324Z,98353.55
2019-06-01T17:42:15.876Z,98345.98
2019-06-01T17:47:40.979Z,98355.41
2019-06-01T17:53:02.528Z,98355.77
2019-06-01T17:58:24.646Z,98336.33
2019-06-01T18:03:46.299Z,98369.50
2019-06-01T18:09:08.714Z,98374.88
2019-06-01T18:14:30.147Z,98354.06
2019-06-01T18:19:51.845Z,98365.03
2019-06-01T18:25:19.041Z,98362.17
2019-06-01T18:30:40.849Z,98375.69
2019-06-01T18:36:03.445Z,98385.10
2019-06-01T18:41:24.945Z,98395.48
2019-06-01T18:46:46.550Z,98424.58
2019-06-01T18:52:08.656Z,98422.05
2019-06-01T18:57:31.171Z,98416.23
2019-06-01T19:02:52.853Z,98420.77
2019-06-01T19:08:15.920Z,98414.16
2019-06-01T19:13:37.787Z,98416.02
2019-06-01T19:18:59.638Z,98429.04
2019-06-01T19:24:21.477Z,98454.36
2019-06-01T19:29:43.640Z,98424.66
2019-06-01T19:35:07.402Z,98427.98
2019-06-01T19:40:33.640Z,98442.55
2019-06-01T19:45:55.330Z,98448.05
2019-06-01T19:51:18.680Z,98437.39
2019-06-01T19:56:40.529Z,98432.78
2019-06-01T20:02:02.378Z,98436.13
2019-06-01T20:07:24.771Z,98456.64
2019-06-01T20:12:46.774Z,98465.64
2019-06-01T20:18:08.309Z,98462.00
2019-06-01T20:23:29.913Z,98453.80
2019-06-01T20:28:51.905Z,98465.73
2019-06-01T20:34:14.308Z,98484.16
2019-06-01T20:39:35.848Z,98462.33
2019-06-01T20:44:57.595Z,98469.03
2019-06-01T20:50:20.838Z,98462.25
2019-06-01T20:55:42.673Z,98470.59
2019-06-01T21:01:04.636Z,98466.59
2019-06-01T21:06:26.481Z,98463.70
2019-06-01T21:11:48.597Z,98460.31
2019-06-01T21:17:10.149Z,98446.98
2019-06-01T21:22:31.943Z,98450.38
2019-06-01T21:27:53.772Z,98445.12
2019-06-01T21:33:15.518Z,98442.89
2019-06-01T21:38:38.577Z,98427.59
2019-06-01T21:43:59.981Z,98423.14
2019-06-01T21:49:22.180Z,98428.75
2019-06-01T21:54:43.952Z,98438.56
2019-06-01T22:00:07.934Z,98448.36
2019-06-01T22:05:29.383Z,98454.95
2019-06-01T22:10:51.223Z,98451.27
2019-06-01T22:16:13.175Z,98452.38
2019-06-01T22:21:34.618Z,98460.30
2019-06-01T22:26:56.376Z,98468.86
2019-06-01T22:32:22.455Z,98472.25
2019-06-01T22:37:41.986Z,98477.91
2019-06-01T22:43:03.604Z,98467.98
2019-06-01T22:48:25.239Z,98455.83
2019-06-01T22:53:47.090Z,98463.03
2019-06-01T22:59:08.655Z,98456.48
2019-06-01T23:04:31.380Z,98453.78
2019-06-01T23:09:53.288Z,98441.39
2019-06-01T23:15:14.998Z,98436.67
2019-06-01T23:20:36.792Z,98432.82
2019-06-01T23:25:58.328Z,98424.01
2019-06-01T23:31:19.597Z,98426.09
2019-06-01T23:36:41.446Z,98424.55
2019-06-01T23:42:03.122Z,98417.15
2019-06-01T23:47:25.685Z,98405.08
2019-06-01T23:52:47.472Z,98410.09
2019-06-01T23:58:09.096Z,98408.41
